Time;durP1;ratioP1;P1;durP2;ratioP2;P2;SDS_P1;SDS_P2;PMS_P1;PMS_P2;Temp;Humidity;BMP_temperature;BMP_pressure;BME280_temperature;BME280_humidity;BME280_pressure;Samples;Min_cycle;Max_cycle;Signal;HPM_P1;HPM_P2
2023/01/17 00:02:17;;;;;;;403.15;385.02;;;0.60;99.90;;;;;;5096785;28;20053;-76
2023/01/17 00:10:18;;;;;;;477.58;436.23;;;0.80;99.90;;;;;;5101264;28;20062;-76
2023/01/17 00:12:49;;;;;;;579.20;541.00;;;0.90;99.90;;;;;;5090072;28;20433;-77
2023/01/17 00:15:18;;;;;;;427.73;394.50;;;0.90;99.90;;;;;;5100826;28;20116;-76
2023/01/17 00:17:45;;;;;;;290.45;269.75;;;1.00;99.90;;;;;;5093907;28;20040;-75
2023/01/17 00:26:03;;;;;;;330.33;306.88;;;1.10;99.90;;;;;;5090600;28;20031;-76
2023/01/17 01:35:25;;;;;;;506.58;478.38;;;0.60;99.90;;;;;;5097667;28;20115;-76
2023/01/17 01:37:51;;;;;;;569.63;526.13;;;0.70;99.90;;;;;;5078530;28;20127;-77
2023/01/17 01:40:18;;;;;;;469.65;443.98;;;0.70;99.90;;;;;;5092739;28;20028;-76
2023/01/17 01:42:53;;;;;;;501.02;479.73;;;0.70;99.90;;;;;;5097656;28;20050;-76
2023/01/17 01:45:27;;;;;;;387.98;371.70;;;0.70;99.90;;;;;;5094271;28;20393;-76
2023/01/17 01:48:01;;;;;;;327.77;313.70;;;0.70;99.90;;;;;;5105113;28;20394;-77
2023/01/17 01:50:29;;;;;;;343.85;327.65;;;0.60;99.90;;;;;;5098641;28;20028;-76
2023/01/17 01:52:58;;;;;;;398.40;381.48;;;0.80;99.90;;;;;;5108939;28;20504;-76
2023/01/17 01:55:29;;;;;;;434.10;415.67;;;0.90;99.90;;;;;;5098677;28;20040;-76
2023/01/17 01:58:01;;;;;;;322.88;309.58;;;1.00;99.90;;;;;;5100531;28;20034;-76
2023/01/17 02:00:33;;;;;;;371.83;353.55;;;1.00;99.90;;;;;;5101913;28;20040;-77
2023/01/17 02:03:04;;;;;;;394.90;378.75;;;1.10;99.90;;;;;;5091842;28;20081;-76
2023/01/17 02:05:30;;;;;;;291.27;278.17;;;1.10;99.90;;;;;;5095940;28;20030;-76
2023/01/17 02:08:09;;;;;;;423.02;404.08;;;1.00;99.90;;;;;;5095766;28;20028;-76
2023/01/17 02:10:38;;;;;;;289.17;274.67;;;1.00;99.90;;;;;;5100457;28;20039;-76
2023/01/17 02:13:05;;;;;;;300.38;287.73;;;0.90;99.90;;;;;;5097095;28;20024;-76
2023/01/17 02:15:54;;;;;;;384.08;361.85;;;0.90;99.90;;;;;;5083811;28;20029;-76
2023/01/17 02:18:39;;;;;;;391.60;371.17;;;1.00;99.90;;;;;;5080316;28;20134;-77
2023/01/17 02:21:18;;;;;;;253.90;244.02;;;1.10;99.90;;;;;;5095195;28;20032;-76
2023/01/17 02:24:15;;;;;;;352.92;329.25;;;1.10;99.90;;;;;;5084029;28;20054;-77
2023/01/17 02:26:46;;;;;;;216.82;208.50;;;1.20;99.90;;;;;;5087543;28;20020;-76
2023/01/17 02:29:27;;;;;;;450.33;431.45;;;1.10;99.90;;;;;;5094069;28;20024;-76
2023/01/17 02:32:02;;;;;;;359.48;344.88;;;1.10;99.90;;;;;;5080806;28;20391;-76
2023/01/17 02:34:32;;;;;;;360.05;346.05;;;1.10;99.90;;;;;;5085236;28;20039;-77
2023/01/17 02:37:09;;;;;;;282.30;271.45;;;1.00;99.90;;;;;;5096324;28;20024;-76
2023/01/17 02:39:50;;;;;;;261.10;250.52;;;0.90;99.90;;;;;;5094415;28;20692;-77
2023/01/17 02:42:18;;;;;;;351.15;336.38;;;0.90;99.90;;;;;;5082993;28;20057;-76
2023/01/17 02:44:44;;;;;;;348.80;332.65;;;1.00;99.90;;;;;;5095117;28;20035;-77
2023/01/17 02:47:26;;;;;;;354.55;340.08;;;1.10;99.90;;;;;;5093756;28;20501;-76
2023/01/17 02:50:00;;;;;;;297.48;282.27;;;1.00;99.90;;;;;;5076846;28;20069;-76
2023/01/17 02:52:34;;;;;;;371.02;356.23;;;1.00;99.90;;;;;;5099280;28;20143;-77
2023/01/17 02:55:37;;;;;;;243.50;233.90;;;1.10;99.90;;;;;;5086186;28;20709;-76
2023/01/17 02:58:14;;;;;;;242.10;232.70;;;1.10;99.90;;;;;;5092525;28;20115;-76
2023/01/17 03:01:08;;;;;;;237.90;228.45;;;1.10;99.90;;;;;;5093465;28;20024;-76
2023/01/17 03:03:53;;;;;;;296.52;284.42;;;1.10;99.90;;;;;;5102955;28;20848;-76
2023/01/17 03:06:39;;;;;;;362.63;346.65;;;1.20;99.90;;;;;;5088789;28;20028;-77
2023/01/17 03:09:06;;;;;;;282.08;270.70;;;1.20;99.90;;;;;;5091393;28;20525;-76
2023/01/17 03:11:32;;;;;;;277.58;266.08;;;1.20;99.90;;;;;;5096850;28;20147;-76
2023/01/17 03:13:57;;;;;;;311.90;299.23;;;1.30;99.90;;;;;;5082523;28;20804;-76
2023/01/17 03:16:27;;;;;;;208.82;200.93;;;1.20;99.90;;;;;;5093533;28;20032;-76
2023/01/17 03:18:53;;;;;;;255.33;245.23;;;1.20;99.90;;;;;;5094112;28;20043;-76
2023/01/17 03:21:20;;;;;;;351.38;337.05;;;1.10;99.90;;;;;;5100827;28;20022;-76
2023/01/17 03:23:46;;;;;;;339.42;325.65;;;1.10;99.90;;;;;;5092482;28;20024;-76
2023/01/17 03:26:11;;;;;;;316.17;303.30;;;1.20;99.90;;;;;;5097466;28;20028;-76
2023/01/17 03:28:37;;;;;;;258.55;246.20;;;1.20;99.90;;;;;;5094638;28;20071;-76
2023/01/17 03:31:02;;;;;;;366.08;350.75;;;1.20;99.90;;;;;;5100824;28;20584;-74
2023/01/17 03:33:28;;;;;;;237.48;225.48;;;1.20;99.90;;;;;;5095224;28;20101;-74
2023/01/17 03:35:56;;;;;;;344.48;329.83;;;1.20;99.90;;;;;;5094614;28;20103;-74
2023/01/17 03:38:26;;;;;;;270.63;259.98;;;1.10;99.90;;;;;;5098785;28;20059;-74
2023/01/17 03:40:52;;;;;;;207.48;199.52;;;1.10;99.90;;;;;;5091603;28;20367;-74
2023/01/17 03:43:18;;;;;;;170.35;164.07;;;1.00;99.90;;;;;;5099264;28;20039;-74
2023/01/17 03:45:43;;;;;;;223.85;215.05;;;1.00;99.90;;;;;;5092310;28;20027;-74
2023/01/17 03:48:09;;;;;;;210.00;201.88;;;1.00;99.90;;;;;;5095005;28;20051;-74
2023/01/17 03:50:35;;;;;;;137.75;132.98;;;1.10;99.90;;;;;;5100250;28;20712;-74
2023/01/17 03:53:01;;;;;;;302.80;290.13;;;1.10;99.90;;;;;;5074436;28;20028;-74
2023/01/17 03:55:27;;;;;;;192.88;185.68;;;1.20;99.90;;;;;;5102935;28;20034;-74
2023/01/17 03:57:52;;;;;;;233.20;224.20;;;1.20;99.90;;;;;;5095449;28;20024;-74
2023/01/17 04:00:19;;;;;;;169.70;163.50;;;1.20;99.90;;;;;;5097091;28;20039;-74
2023/01/17 04:02:45;;;;;;;215.30;206.98;;;1.10;99.90;;;;;;5091729;28;20081;-74
2023/01/17 04:05:11;;;;;;;246.45;236.48;;;1.10;99.90;;;;;;5091843;28;20023;-73
2023/01/17 04:07:36;;;;;;;293.92;281.70;;;1.10;99.90;;;;;;5094572;28;20020;-74
2023/01/17 04:10:02;;;;;;;180.48;173.38;;;1.00;99.90;;;;;;5092436;28;20036;-74
2023/01/17 04:12:28;;;;;;;255.38;244.98;;;0.90;99.90;;;;;;5092323;28;20477;-74
2023/01/17 04:14:53;;;;;;;261.63;250.80;;;0.90;99.90;;;;;;5088519;28;20048;-76
2023/01/17 04:17:19;;;;;;;334.08;320.10;;;0.90;99.90;;;;;;5092343;28;20043;-76
2023/01/17 04:19:46;;;;;;;269.27;258.65;;;0.80;99.90;;;;;;5095442;28;20032;-76
2023/01/17 04:22:11;;;;;;;298.52;286.33;;;0.70;99.90;;;;;;5093401;28;20035;-76
2023/01/17 04:24:37;;;;;;;367.23;351.33;;;0.70;99.90;;;;;;5095527;28;20375;-77
2023/01/17 04:27:04;;;;;;;433.98;414.83;;;0.70;99.90;;;;;;5094233;28;20028;-76
2023/01/17 04:29:29;;;;;;;407.75;389.92;;;0.70;99.90;;;;;;5103102;28;20074;-77
2023/01/17 04:31:55;;;;;;;412.98;395.23;;;0.70;99.90;;;;;;5076090;28;20391;-77
2023/01/17 04:34:21;;;;;;;444.45;425.58;;;0.50;99.90;;;;;;5094673;28;20027;-76
2023/01/17 04:36:47;;;;;;;422.85;405.08;;;0.50;99.90;;;;;;5099226;28;20027;-77
2023/01/17 04:39:12;;;;;;;465.50;445.10;;;0.50;99.90;;;;;;5089568;28;20109;-77
2023/01/17 04:41:38;;;;;;;480.60;460.33;;;0.40;99.90;;;;;;5096941;28;20038;-76
2023/01/17 04:44:04;;;;;;;507.92;486.98;;;0.30;99.90;;;;;;5090510;28;20036;-76
2023/01/17 04:46:30;;;;;;;465.02;445.77;;;0.30;99.90;;;;;;5098817;28;20379;-77
2023/01/17 04:48:55;;;;;;;463.67;443.55;;;0.20;99.90;;;;;;5097714;28;20101;-77
2023/01/17 04:51:21;;;;;;;509.30;487.23;;;0.30;99.90;;;;;;5100097;28;20038;-77
2023/01/17 04:53:47;;;;;;;515.53;493.38;;;0.30;99.90;;;;;;5097763;28;20111;-76
2023/01/17 04:56:12;;;;;;;503.92;482.90;;;0.30;99.90;;;;;;5090978;28;20501;-76
2023/01/17 04:58:38;;;;;;;475.08;455.13;;;0.30;99.90;;;;;;5099279;28;20032;-76
2023/01/17 05:01:05;;;;;;;511.35;490.02;;;0.30;99.90;;;;;;5092942;28;20032;-76
2023/01/17 05:03:31;;;;;;;486.13;465.67;;;0.40;99.90;;;;;;5086985;28;20019;-76
2023/01/17 05:05:57;;;;;;;512.38;490.70;;;0.30;99.90;;;;;;5094150;28;20099;-76
2023/01/17 05:08:23;;;;;;;513.83;491.67;;;0.30;99.90;;;;;;5097629;28;20366;-76
2023/01/17 05:10:49;;;;;;;487.60;467.13;;;0.20;99.90;;;;;;5096271;28;20114;-76
2023/01/17 05:13:15;;;;;;;482.67;462.25;;;0.00;99.90;;;;;;5087882;28;20115;-78
2023/01/17 05:15:41;;;;;;;386.08;370.48;;;-0.20;99.90;;;;;;5091361;28;20028;-77
2023/01/17 05:18:16;;;;;;;438.15;419.50;;;-0.40;99.90;;;;;;5094212;28;20531;-77
2023/01/17 05:20:43;;;;;;;460.38;441.00;;;-0.40;99.90;;;;;;5089775;28;20028;-79
2023/01/17 05:23:09;;;;;;;487.38;466.95;;;-0.40;99.90;;;;;;5073278;28;20029;-78
2023/01/17 05:25:36;;;;;;;500.20;479.13;;;-0.50;99.90;;;;;;5108750;27;20028;-78
2023/01/17 05:28:02;;;;;;;524.30;501.73;;;-0.50;99.90;;;;;;5095362;28;20099;-79
2023/01/17 05:30:31;;;;;;;505.95;484.98;;;-0.60;99.90;;;;;;5088191;28;20033;-80
2023/01/17 05:32:57;;;;;;;494.25;473.73;;;-0.70;99.90;;;;;;5093217;28;20481;-80
2023/01/17 05:35:27;;;;;;;476.38;456.25;;;-0.80;99.90;;;;;;5098348;28;20114;-80
2023/01/17 05:37:53;;;;;;;450.27;431.95;;;-1.10;99.90;;;;;;5094673;28;20126;-81
2023/01/17 05:40:25;;;;;;;485.50;465.08;;;-1.10;99.90;;;;;;5094914;28;20046;-80
2023/01/17 05:42:53;;;;;;;431.88;414.15;;;-1.10;99.90;;;;;;5084694;28;20033;-78
2023/01/17 05:45:20;;;;;;;452.67;434.20;;;-1.10;99.90;;;;;;5099279;28;20488;-78
2023/01/17 05:47:50;;;;;;;461.48;442.63;;;-1.20;99.90;;;;;;5091597;28;20496;-77
2023/01/17 05:50:18;;;;;;;462.60;443.83;;;-1.30;99.90;;;;;;5095381;28;20040;-77
2023/01/17 05:52:56;;;;;;;445.92;427.98;;;-1.40;99.90;;;;;;5093132;28;20035;-77
2023/01/17 05:55:23;;;;;;;454.60;435.85;;;-1.40;99.90;;;;;;5094393;28;20039;-77
2023/01/17 05:57:49;;;;;;;458.48;439.40;;;-1.50;99.90;;;;;;5091944;28;20061;-77
2023/01/17 06:00:16;;;;;;;475.70;455.40;;;-1.40;99.90;;;;;;5099367;28;20040;-77
2023/01/17 06:02:42;;;;;;;482.98;462.27;;;-1.40;99.90;;;;;;5093277;28;20039;-77
2023/01/17 06:05:08;;;;;;;454.13;435.85;;;-1.40;99.90;;;;;;5093938;28;20035;-77
2023/01/17 06:07:34;;;;;;;448.60;429.60;;;-1.50;99.90;;;;;;5077301;28;20394;-77
2023/01/17 06:09:59;;;;;;;434.33;417.05;;;-1.60;99.90;;;;;;5096811;28;20051;-77
2023/01/17 06:12:25;;;;;;;444.95;427.13;;;-1.70;99.90;;;;;;5094572;28;20047;-77
2023/01/17 06:14:51;;;;;;;397.70;382.08;;;-1.70;99.90;;;;;;5080696;28;20028;-77
2023/01/17 06:17:16;;;;;;;419.48;402.95;;;-1.80;99.90;;;;;;5093601;28;20508;-76
2023/01/17 06:19:42;;;;;;;409.23;392.98;;;-1.90;99.90;;;;;;5104910;28;20409;-76
2023/01/17 06:22:08;;;;;;;420.70;403.67;;;-1.90;99.90;;;;;;5090532;28;20034;-76
2023/01/17 06:24:34;;;;;;;426.60;409.40;;;-2.00;99.90;;;;;;5090768;28;20730;-80
2023/01/17 06:27:02;;;;;;;399.70;384.35;;;-1.90;99.90;;;;;;5089209;28;20481;-79
2023/01/17 06:29:28;;;;;;;403.40;387.40;;;-2.00;99.90;;;;;;5098495;28;20015;-82
2023/01/17 06:31:53;;;;;;;427.40;410.27;;;-2.00;99.90;;;;;;5092957;28;20028;-79
2023/01/17 06:34:19;;;;;;;410.08;393.70;;;-2.10;99.90;;;;;;5075890;28;20021;-81
2023/01/17 06:36:45;;;;;;;408.63;391.83;;;-2.10;99.90;;;;;;5097582;28;20035;-80
2023/01/17 06:39:11;;;;;;;509.98;486.95;;;-2.00;99.90;;;;;;5091423;28;20035;-80
2023/01/17 06:41:36;;;;;;;514.42;490.90;;;-1.90;99.90;;;;;;5094351;28;20427;-82
2023/01/17 06:44:03;;;;;;;525.50;501.88;;;-1.90;99.90;;;;;;5096764;28;20036;-81
2023/01/17 06:46:32;;;;;;;530.40;506.25;;;-2.00;99.90;;;;;;5092774;28;20043;-81
2023/01/17 06:48:57;;;;;;;513.97;490.88;;;-1.90;99.90;;;;;;5099751;28;20032;-81
2023/01/17 06:51:23;;;;;;;519.67;497.15;;;-2.00;99.90;;;;;;5095451;28;20031;-80
2023/01/17 06:53:49;;;;;;;462.08;442.90;;;-2.00;99.90;;;;;;5093975;28;20043;-79
2023/01/17 06:56:15;;;;;;;550.35;524.67;;;-2.10;99.90;;;;;;5094099;28;20397;-81
2023/01/17 06:58:41;;;;;;;485.17;464.35;;;-2.00;99.90;;;;;;5098605;28;20043;-81
2023/01/17 07:01:08;;;;;;;507.15;484.83;;;-2.20;99.90;;;;;;5097598;28;20036;-75
2023/01/17 07:03:40;;;;;;;481.38;460.63;;;-2.20;99.90;;;;;;5076376;28;20611;-84
2023/01/17 07:06:08;;;;;;;511.42;488.00;;;-2.10;99.90;;;;;;5090828;28;20036;-87
2023/01/17 07:08:35;;;;;;;544.60;519.42;;;-2.10;99.90;;;;;;5079392;28;20064;-86
2023/01/17 07:11:06;;;;;;;568.28;540.63;;;-2.00;99.90;;;;;;5089112;28;20642;-86
2023/01/17 07:13:37;;;;;;;541.15;515.90;;;-2.00;99.90;;;;;;5078781;28;20021;-86
2023/01/17 07:16:06;;;;;;;543.10;517.00;;;-2.00;99.90;;;;;;5091744;28;20512;-83
2023/01/17 07:18:33;;;;;;;506.42;483.58;;;-2.10;99.90;;;;;;5094522;28;20051;-83
2023/01/17 07:20:58;;;;;;;456.73;436.92;;;-2.20;99.90;;;;;;5094454;28;20027;-82
2023/01/17 07:23:25;;;;;;;522.08;497.60;;;-2.20;99.90;;;;;;5099277;28;20024;-83
2023/01/17 07:25:58;;;;;;;496.33;473.75;;;-2.20;99.90;;;;;;5076498;28;20157;-83
2023/01/17 07:28:26;;;;;;;541.55;515.78;;;-2.10;99.90;;;;;;5098863;27;20083;-83
2023/01/17 07:30:52;;;;;;;596.28;567.00;;;-2.00;99.90;;;;;;5092509;28;20117;-84
2023/01/17 07:33:18;;;;;;;586.25;557.80;;;-2.00;99.90;;;;;;5109516;27;20036;-82
2023/01/17 07:35:44;;;;;;;564.08;537.72;;;-2.00;99.90;;;;;;5095773;28;20030;-83
2023/01/17 07:38:15;;;;;;;546.47;521.10;;;-2.00;99.90;;;;;;5095779;28;20479;-82
2023/01/17 07:40:40;;;;;;;;;;;-2.00;99.90;;;;;;5075719;28;20555;-70
2023/01/17 07:43:12;;;;;;;260.60;250.75;;;-1.90;99.90;;;;;;5096662;28;19916;-70
2023/01/17 07:45:45;;;;;;;417.90;399.77;;;-1.90;99.90;;;;;;5095483;28;20040;-79
2023/01/17 07:48:11;;;;;;;486.52;465.05;;;-1.80;99.90;;;;;;5087194;28;20032;-80
2023/01/17 07:50:37;;;;;;;538.03;513.28;;;-1.80;99.90;;;;;;5093691;28;20034;-78
2023/01/17 07:53:04;;;;;;;526.67;502.55;;;-1.80;99.90;;;;;;5097084;28;20118;-79
2023/01/17 07:55:30;;;;;;;579.72;551.78;;;-1.80;99.90;;;;;;5072000;28;20041;-79
2023/01/17 07:57:56;;;;;;;546.13;520.88;;;-1.80;99.90;;;;;;5091508;28;20409;-79
2023/01/17 08:00:24;;;;;;;594.03;564.25;;;-1.70;99.90;;;;;;5089503;28;20143;-79
2023/01/17 08:02:55;;;;;;;580.05;551.92;;;-1.60;99.90;;;;;;5076384;28;20031;-78
2023/01/17 08:05:20;;;;;;;572.60;545.65;;;-1.50;99.90;;;;;;5085700;28;20028;-78
2023/01/17 08:07:46;;;;;;;532.63;508.33;;;-1.40;99.90;;;;;;5070947;28;20051;-78
2023/01/17 08:10:16;;;;;;;552.88;527.60;;;-1.30;99.90;;;;;;5089118;28;20028;-78
2023/01/17 08:12:48;;;;;;;497.55;474.95;;;-1.10;99.90;;;;;;5088307;28;20082;-78
2023/01/17 08:15:16;;;;;;;533.15;508.65;;;-1.00;99.90;;;;;;5092494;28;20054;-78
2023/01/17 08:17:46;;;;;;;497.35;475.05;;;-0.90;99.90;;;;;;5087749;28;20114;-79
2023/01/17 08:20:12;;;;;;;530.08;506.88;;;-0.90;99.90;;;;;;5088613;28;20104;-79
2023/01/17 08:22:38;;;;;;;554.47;529.10;;;-0.90;99.90;;;;;;5095825;28;20032;-78
2023/01/17 08:25:04;;;;;;;570.97;544.22;;;-0.80;99.90;;;;;;5099465;28;20397;-77
2023/01/17 08:27:30;;;;;;;611.13;581.22;;;-0.80;99.90;;;;;;5096607;28;20039;-78
2023/01/17 08:29:56;;;;;;;612.83;582.58;;;-0.80;99.90;;;;;;5096494;28;20031;-78
2023/01/17 08:32:22;;;;;;;592.28;563.42;;;-0.70;99.90;;;;;;5094533;28;20406;-77
2023/01/17 08:34:47;;;;;;;565.15;538.65;;;-0.70;99.90;;;;;;5079859;28;20028;-77
2023/01/17 08:37:13;;;;;;;606.92;577.20;;;-0.60;99.90;;;;;;5102906;28;20154;-77
2023/01/17 08:39:39;;;;;;;673.72;638.05;;;-0.50;99.90;;;;;;5096880;28;20142;-77
2023/01/17 08:42:05;;;;;;;642.83;610.58;;;-0.50;99.90;;;;;;5094336;28;20537;-78
2023/01/17 08:44:30;;;;;;;656.67;622.97;;;-0.30;99.90;;;;;;5100875;28;20031;-77
2023/01/17 08:46:56;;;;;;;673.63;639.88;;;-0.20;99.90;;;;;;5090012;28;20064;-77
2023/01/17 08:49:21;;;;;;;612.95;582.50;;;-0.10;99.90;;;;;;5070491;28;20028;-78
2023/01/17 08:51:47;;;;;;;585.78;557.95;;;-0.10;99.90;;;;;;5097035;28;20032;-78
2023/01/17 08:54:14;;;;;;;526.10;501.85;;;-0.10;99.90;;;;;;5094334;28;20040;-78
2023/01/17 08:56:41;;;;;;;547.90;523.20;;;-0.10;99.90;;;;;;5096736;28;20036;-78
2023/01/17 08:59:09;;;;;;;532.10;507.58;;;0.10;99.90;;;;;;5095311;28;20061;-78
2023/01/17 09:01:40;;;;;;;543.55;517.85;;;0.20;99.90;;;;;;5097089;28;20360;-78
2023/01/17 09:04:09;;;;;;;;;;;0.40;99.90;;;;;;5078059;28;20038;-78
2023/01/17 09:06:36;;;;;;;336.58;324.00;;;0.60;99.90;;;;;;5093827;28;19916;-77
2023/01/17 09:09:04;;;;;;;382.48;367.35;;;0.40;99.90;;;;;;5096634;28;20035;-79
2023/01/17 09:11:30;;;;;;;441.80;422.85;;;0.40;99.90;;;;;;5093948;28;20047;-78
2023/01/17 09:13:55;;;;;;;445.08;425.90;;;0.50;99.90;;;;;;5098668;28;20028;-77
2023/01/17 09:16:21;;;;;;;474.95;454.48;;;0.60;99.90;;;;;;5101169;28;20051;-77
2023/01/17 09:18:46;;;;;;;430.65;412.80;;;0.60;99.90;;;;;;5091315;28;20108;-77
2023/01/17 09:21:16;;;;;;;442.40;424.02;;;0.70;99.90;;;;;;5094354;28;20478;-78
2023/01/17 09:23:42;;;;;;;512.30;489.83;;;0.70;99.90;;;;;;5097043;28;20097;-75
2023/01/17 09:26:17;;;;;;;476.92;457.25;;;0.80;99.90;;;;;;5096771;28;20024;-78
2023/01/17 09:28:43;;;;;;;484.45;463.55;;;0.80;99.90;;;;;;5098522;28;20147;-78
2023/01/17 09:31:08;;;;;;;537.65;514.55;;;0.60;99.90;;;;;;5080802;28;20557;-78
2023/01/17 09:33:35;;;;;;;535.95;513.05;;;0.70;99.90;;;;;;5093012;28;20032;-78
2023/01/17 09:36:03;;;;;;;512.60;490.70;;;0.90;99.90;;;;;;5099505;28;20024;-78
2023/01/17 09:38:29;;;;;;;500.70;479.58;;;0.90;99.90;;;;;;5097784;28;20103;-77
2023/01/17 09:40:54;;;;;;;510.88;488.33;;;1.00;99.90;;;;;;5085975;28;20031;-78
2023/01/17 09:43:39;;;;;;;378.02;363.02;;;1.00;99.90;;;;;;5097025;28;20397;-78
2023/01/17 09:46:13;;;;;;;252.63;243.25;;;1.00;99.90;;;;;;5090695;28;20066;-78
2023/01/17 09:48:41;;;;;;;321.70;309.08;;;1.10;99.90;;;;;;5100391;28;20031;-78
2023/01/17 09:51:14;;;;;;;379.65;364.60;;;1.40;99.90;;;;;;5094125;28;20078;-78
2023/01/17 09:53:42;;;;;;;199.75;192.57;;;1.40;99.90;;;;;;5098673;28;20024;-78
2023/01/17 09:56:15;;;;;;;341.45;327.73;;;1.40;99.90;;;;;;5095750;28;20066;-78
2023/01/17 09:59:08;;;;;;;235.05;226.32;;;1.40;99.90;;;;;;5089654;28;20036;-78
2023/01/17 10:02:14;;;;;;;142.10;137.05;;;1.30;99.90;;;;;;5092216;28;20028;-78
2023/01/17 10:05:01;;;;;;;92.30;88.55;;;1.30;99.90;;;;;;5096345;28;20032;-78
2023/01/17 10:07:29;;;;;;;57.75;55.58;;;1.20;99.90;;;;;;5087801;28;20046;-78
2023/01/17 10:09:58;;;;;;;153.07;147.70;;;1.10;99.90;;;;;;5096278;28;20043;-77
2023/01/17 10:12:38;;;;;;;266.65;256.20;;;1.30;99.90;;;;;;5093160;28;20404;-78
2023/01/17 10:15:30;;;;;;;223.15;214.98;;;1.40;99.90;;;;;;5096560;28;20031;-79
2023/01/17 10:17:56;;;;;;;214.00;206.32;;;1.40;99.90;;;;;;5094759;28;20078;-78
2023/01/17 10:20:42;;;;;;;127.88;123.35;;;1.30;99.90;;;;;;5096665;28;20032;-78
2023/01/17 10:23:35;;;;;;;163.18;157.07;;;1.10;99.90;;;;;;5098986;28;20047;-77
2023/01/17 10:26:15;;;;;;;128.70;123.95;;;1.00;99.90;;;;;;5094096;28;20035;-77
2023/01/17 10:28:47;;;;;;;196.13;188.52;;;0.90;99.90;;;;;;5099275;28;20031;-77
2023/01/17 10:31:26;;;;;;;307.85;294.90;;;1.10;99.90;;;;;;5090197;28;20508;-78
2023/01/17 10:33:56;;;;;;;310.95;297.60;;;1.20;99.90;;;;;;5079872;28;20035;-78
2023/01/17 10:36:47;;;;;;;401.75;384.95;;;1.30;99.90;;;;;;5087204;28;20353;-78
2023/01/17 10:39:23;;;;;;;439.42;420.73;;;1.40;99.90;;;;;;5085494;28;20040;-77
2023/01/17 10:42:22;;;;;;;171.98;165.75;;;1.40;99.90;;;;;;5094255;28;20082;-78
2023/01/17 10:44:59;;;;;;;93.10;89.45;;;1.40;99.90;;;;;;5080418;28;20051;-78
2023/01/17 10:47:28;;;;;;;88.40;85.13;;;1.60;99.90;;;;;;5089944;28;20028;-77
2023/01/17 10:49:57;;;;;;;160.80;154.75;;;1.80;99.90;;;;;;5107590;27;20033;-78
2023/01/17 10:52:34;;;;;;;166.10;160.30;;;1.90;99.90;;;;;;5088325;28;20122;-77
2023/01/17 10:55:16;;;;;;;236.63;226.80;;;2.00;99.90;;;;;;5091236;28;20040;-78
2023/01/17 10:57:44;;;;;;;105.45;101.53;;;2.00;99.90;;;;;;5094423;28;20020;-78
2023/01/17 11:00:38;;;;;;;100.65;96.88;;;2.20;99.90;;;;;;5093276;28;20128;-77
2023/01/17 11:03:04;;;;;;;88.45;84.22;;;2.20;99.90;;;;;;5088839;28;20031;-78
2023/01/17 11:05:32;;;;;;;48.05;46.10;;;2.10;99.90;;;;;;5085743;28;20024;-79
2023/01/17 11:08:04;;;;;;;31.95;30.25;;;2.00;99.90;;;;;;5085920;28;20016;-78
2023/01/17 11:10:47;;;;;;;27.42;26.13;;;1.90;99.90;;;;;;5094521;28;20035;-78
2023/01/17 11:13:33;;;;;;;24.77;23.15;;;2.00;99.90;;;;;;5091158;28;20020;-78
2023/01/17 11:16:01;;;;;;;19.90;18.88;;;2.20;99.30;;;;;;5088174;28;20024;-78
2023/01/17 11:18:34;;;;;;;21.52;20.60;;;2.30;98.00;;;;;;5074484;28;20063;-78
2023/01/17 11:21:12;;;;;;;18.15;17.20;;;2.50;97.40;;;;;;5089672;28;20044;-78
2023/01/17 11:23:41;;;;;;;16.60;15.40;;;2.50;95.90;;;;;;5088556;28;20020;-78
2023/01/17 11:26:11;;;;;;;14.82;14.18;;;2.60;95.20;;;;;;5097194;28;20028;-78
2023/01/17 11:28:39;;;;;;;13.37;12.70;;;2.60;95.50;;;;;;5089685;28;20036;-78
2023/01/17 11:31:21;;;;;;;16.10;15.30;;;2.70;94.90;;;;;;5089917;28;20028;-75
2023/01/17 11:33:54;;;;;;;12.98;12.25;;;2.80;93.80;;;;;;5092248;28;20862;-76
2023/01/17 11:36:29;;;;;;;12.05;11.05;;;2.80;93.60;;;;;;5097308;28;20055;-76
2023/01/17 11:38:55;;;;;;;15.77;14.48;;;2.80;94.80;;;;;;5100014;28;20035;-76
2023/01/17 11:41:22;;;;;;;9.15;8.48;;;2.80;93.20;;;;;;5089229;28;20437;-76
2023/01/17 11:43:54;;;;;;;8.50;7.90;;;2.90;91.90;;;;;;5073160;28;20452;-76
2023/01/17 11:46:20;;;;;;;12.73;12.13;;;3.00;91.50;;;;;;5086276;28;20032;-75
2023/01/17 11:48:52;;;;;;;12.50;11.65;;;2.90;90.20;;;;;;5086707;28;20056;-76
2023/01/17 11:51:24;;;;;;;10.75;10.25;;;2.80;90.80;;;;;;5077410;28;20040;-76
2023/01/17 11:53:51;;;;;;;9.40;8.93;;;2.90;89.90;;;;;;5078033;28;20024;-76
2023/01/17 11:56:32;;;;;;;11.50;10.90;;;2.80;89.20;;;;;;5075738;28;20031;-78
2023/01/17 11:59:23;;;;;;;5.97;5.68;;;3.10;89.20;;;;;;5114076;27;20119;-76
2023/01/17 12:02:22;;;;;;;7.18;6.78;;;3.30;85.40;;;;;;5091772;28;20020;-76
2023/01/17 12:05:14;;;;;;;5.40;5.00;;;3.10;86.90;;;;;;5091898;28;20524;-77
2023/01/17 12:07:42;;;;;;;5.20;4.90;;;3.30;85.60;;;;;;5096228;28;20028;-76
2023/01/17 12:10:24;;;;;;;5.97;5.47;;;3.40;84.30;;;;;;5082548;28;20043;-76
2023/01/17 12:16:26;;;;;;;4.90;4.60;;;3.00;83.80;;;;;;5084722;28;20161;-76
2023/01/17 12:19:00;;;;;;;8.18;7.65;;;3.20;83.20;;;;;;5093062;28;20435;-77
2023/01/17 12:21:48;;;;;;;5.20;4.47;;;3.20;83.90;;;;;;5086106;28;20024;-77
2023/01/17 12:24:22;;;;;;;9.90;4.93;;;3.30;83.10;;;;;;5099537;28;20026;-76
2023/01/17 12:27:39;;;;;;;4.70;4.40;;;3.30;82.90;;;;;;5093657;28;20777;-76
2023/01/17 12:30:29;;;;;;;4.68;4.40;;;3.60;83.20;;;;;;4966714;28;20142;-76
2023/01/17 12:33:01;;;;;;;7.95;7.45;;;3.40;79.90;;;;;;5083603;28;20038;-75
2023/01/17 12:35:37;;;;;;;61.72;56.53;;;3.50;81.00;;;;;;5089200;28;20035;-75
2023/01/17 12:38:09;;;;;;;5.28;4.97;;;3.60;80.40;;;;;;5075000;28;20045;-76
2023/01/17 12:40:44;;;;;;;5.57;5.07;;;3.40;78.10;;;;;;5088979;28;20035;-76
2023/01/17 12:43:31;;;;;;;5.38;5.00;;;3.20;80.00;;;;;;5093692;28;20020;-76
2023/01/17 12:46:02;;;;;;;6.20;5.60;;;3.20;80.20;;;;;;5090828;28;20023;-76
2023/01/17 12:48:33;;;;;;;4.32;4.13;;;3.20;80.30;;;;;;5092365;28;20012;-76
2023/01/17 12:51:14;;;;;;;5.40;5.20;;;3.30;81.60;;;;;;5081892;28;20116;-76
2023/01/17 12:54:04;;;;;;;5.72;4.80;;;3.40;79.60;;;;;;5087973;28;20036;-73
2023/01/17 12:56:51;;;;;;;5.75;5.45;;;3.30;80.50;;;;;;5086931;28;20512;-73
2023/01/17 12:59:34;;;;;;;17.38;16.42;;;3.30;80.20;;;;;;5099104;28;20040;-73
2023/01/17 13:02:06;;;;;;;4.97;4.57;;;3.00;80.30;;;;;;5080145;28;20029;-73
2023/01/17 13:04:51;;;;;;;5.13;4.82;;;3.00;81.40;;;;;;5090486;28;20031;-75
2023/01/17 13:07:50;;;;;;;7.40;7.00;;;2.80;80.70;;;;;;5084463;28;20028;-77
2023/01/17 13:10:59;;;;;;;6.38;5.75;;;2.90;81.60;;;;;;5099634;28;20501;-77
2023/01/17 13:13:28;;;;;;;5.70;5.25;;;2.80;82.30;;;;;;5091043;28;20040;-77
2023/01/17 13:16:16;;;;;;;5.32;5.03;;;2.90;83.30;;;;;;5100750;28;20024;-77
2023/01/17 13:18:45;;;;;;;5.20;4.90;;;2.90;83.40;;;;;;5084818;28;20133;-76
2023/01/17 13:21:14;;;;;;;5.55;5.10;;;2.80;82.80;;;;;;5088681;28;20082;-76
2023/01/17 13:24:04;;;;;;;4.97;4.70;;;2.90;84.20;;;;;;5097778;28;20024;-75
2023/01/17 13:26:49;;;;;;;21.17;20.15;;;2.90;84.80;;;;;;5081385;28;20498;-76
2023/01/17 13:29:35;;;;;;;6.60;6.07;;;2.80;84.60;;;;;;5078117;28;20100;-75
2023/01/17 13:32:26;;;;;;;6.20;5.65;;;2.80;86.30;;;;;;5085571;28;20116;-76
2023/01/17 13:35:13;;;;;;;4.78;4.47;;;2.80;85.30;;;;;;5088598;28;20023;-76
2023/01/17 13:37:54;;;;;;;6.63;6.07;;;2.80;85.50;;;;;;5089786;28;20115;-76
2023/01/17 13:40:36;;;;;;;5.32;4.93;;;2.90;88.60;;;;;;5093564;28;20051;-76
2023/01/17 13:43:12;;;;;;;5.10;4.68;;;2.70;86.90;;;;;;5088698;28;20017;-75
2023/01/17 13:45:38;;;;;;;11.07;10.48;;;2.50;85.80;;;;;;5096021;28;20121;-75
2023/01/17 13:48:16;;;;;;;5.97;5.60;;;2.40;85.60;;;;;;5088229;28;20043;-76
2023/01/17 13:50:45;;;;;;;6.22;5.85;;;2.40;85.10;;;;;;5093631;28;20020;-76
2023/01/17 13:53:26;;;;;;;5.68;5.28;;;2.40;87.80;;;;;;5089794;28;20036;-75
2023/01/17 13:55:58;;;;;;;9.52;8.82;;;2.50;88.20;;;;;;5099825;28;20024;-74
2023/01/17 13:58:30;;;;;;;5.65;5.30;;;2.40;89.70;;;;;;5099241;28;20544;-76
2023/01/17 14:00:56;;;;;;;6.50;5.93;;;2.30;85.60;;;;;;5091505;28;20880;-75
2023/01/17 14:03:50;;;;;;;9.60;9.10;;;2.30;87.30;;;;;;5097983;28;20175;-76
2023/01/17 14:06:34;;;;;;;4.80;4.50;;;2.30;87.20;;;;;;5089499;28;20119;-76
2023/01/17 14:09:22;;;;;;;4.90;4.70;;;2.30;86.00;;;;;;5097339;28;20861;-76